Janet — 9HSL8 — position and weather

sailwx.info

Track history (hours):
 
Tides and Currents Weather Stations Pressure Air Temp Water Temp Dewpoint Dewpoint Depression Visibility Wind Speed Wind Dir Waves Ship Positions

Janet

Last reported at 2014-Nov-28 18:33 UTC. Time now 2014-Nov-28 19:18 UTC.
Position N 53°26' W 003°00'.

Length 90 m; draft 6.1 m.

Type: Cargo ship. MMSI: 256371000.

Date/timePositionNaut miles runAvg speedWind from/ knotsBaromVisibWave heightAir tempDewpointWater temp
2014-Nov-28 18:33N 53°26' W 003°00'0 0.0
2014-Nov-28 17:33N 53°26' W 003°00'0 0.0
2014-Nov-28 16:21N 53°26' W 003°00'0 0.0
2014-Nov-28 15:33N 53°26' W 003°00'0 0.0
2014-Nov-28 14:33N 53°26' W 003°00'0 0.0
2014-Nov-28 13:33N 53°26' W 003°00'0 0.0
2014-Nov-28 12:33N 53°26' W 003°00'0 0.0
2014-Nov-28 11:27N 53°26' W 003°00'0 0.0
2014-Nov-28 10:27N 53°26' W 003°00'0 0.0
2014-Nov-28 09:33N 53°26' W 003°00'0 0.0
2014-Nov-28 08:33N 53°26' W 003°00'0 0.0
2014-Nov-28 07:33N 53°26' W 003°00'0 0.0
2014-Nov-28 06:33N 53°26' W 003°00'0 0.0
2014-Nov-28 05:33N 53°26' W 003°00'0 0.0
2014-Nov-28 04:33N 53°26' W 003°00'0 0.0
2014-Nov-28 03:33N 53°26' W 003°00'0 0.4
2014-Nov-28 02:33N 53°26' W 003°00'1 0.7
2014-Nov-28 01:29N 53°27' W 003°01'0 0.0
2014-Nov-28 00:29N 53°27' W 003°01'0 0.0
2014-Nov-27 23:23N 53°27' W 003°01'0 0.0
2014-Nov-27 22:11N 53°27' W 003°01'0 0.0
2014-Nov-27 21:23N 53°27' W 003°01'0 0.0
2014-Nov-27 20:11N 53°27' W 003°01'0 0.0
2014-Nov-27 19:29N 53°27' W 003°01'0 0.0
2014-Nov-27 18:29N 53°27' W 003°01'0 0.0
2014-Nov-27 17:23N 53°27' W 003°01'0 0.0
2014-Nov-27 16:29N 53°27' W 003°01'0 0.0
2014-Nov-27 15:23N 53°27' W 003°01'0 0.0
2014-Nov-27 14:29N 53°27' W 003°01'0 0.2
2014-Nov-27 13:34N 53°27' W 003°01'0 0.4
2014-Nov-27 12:33N 53°27' W 003°02'7 7.3
2014-Nov-27 11:33N 53°31' W 003°11'5 3.9
2014-Nov-27 10:22N 53°32' W 003°19'  
Track history (hours):
 
Tides and Currents Weather Stations Pressure Air Temp Water Temp Dewpoint Dewpoint Depression Visibility Wind Speed Wind Dir Waves Ship Positions

Janet

Last reported at 2014-Nov-28 18:33 UTC. Time now 2014-Nov-28 19:18 UTC.
Position N 53°26' W 003°00'.

Length 90 m; draft 6.1 m.

Type: Cargo ship. MMSI: 256371000.

Date/timePositionNaut miles runAvg speedWind from/ knotsBaromVisibWave heightAir tempDewpointWater temp
2014-Nov-28 18:33N 53°26' W 003°00'0 0.0
2014-Nov-28 17:33N 53°26' W 003°00'0 0.0
2014-Nov-28 16:21N 53°26' W 003°00'0 0.0
2014-Nov-28 15:33N 53°26' W 003°00'0 0.0
2014-Nov-28 14:33N 53°26' W 003°00'0 0.0
2014-Nov-28 13:33N 53°26' W 003°00'0 0.0
2014-Nov-28 12:33N 53°26' W 003°00'0 0.0
2014-Nov-28 11:27N 53°26' W 003°00'0 0.0
2014-Nov-28 10:27N 53°26' W 003°00'0 0.0
2014-Nov-28 09:33N 53°26' W 003°00'0 0.0
2014-Nov-28 08:33N 53°26' W 003°00'0 0.0
2014-Nov-28 07:33N 53°26' W 003°00'0 0.0
2014-Nov-28 06:33N 53°26' W 003°00'0 0.0
2014-Nov-28 05:33N 53°26' W 003°00'0 0.0
2014-Nov-28 04:33N 53°26' W 003°00'0 0.0
2014-Nov-28 03:33N 53°26' W 003°00'0 0.4
2014-Nov-28 02:33N 53°26' W 003°00'1 0.7
2014-Nov-28 01:29N 53°27' W 003°01'0 0.0
2014-Nov-28 00:29N 53°27' W 003°01'0 0.0
2014-Nov-27 23:23N 53°27' W 003°01'0 0.0
2014-Nov-27 22:11N 53°27' W 003°01'0 0.0
2014-Nov-27 21:23N 53°27' W 003°01'0 0.0
2014-Nov-27 20:11N 53°27' W 003°01'0 0.0
2014-Nov-27 19:29N 53°27' W 003°01'0 0.0
2014-Nov-27 18:29N 53°27' W 003°01'0 0.0
2014-Nov-27 17:23N 53°27' W 003°01'0 0.0
2014-Nov-27 16:29N 53°27' W 003°01'0 0.0
2014-Nov-27 15:23N 53°27' W 003°01'0 0.0
2014-Nov-27 14:29N 53°27' W 003°01'0 0.2
2014-Nov-27 13:34N 53°27' W 003°01'0 0.4
2014-Nov-27 12:33N 53°27' W 003°02'7 7.3
2014-Nov-27 11:33N 53°31' W 003°11'5 3.9
2014-Nov-27 10:22N 53°32' W 003°19'  

Dump ship's entire track history